sensor_id;sensor_type;location;lat;lon;timestamp;temperature;humidity
1361;DHT22;674;45.552;-122.600;2024-02-16T00:01:27;4.30;1.00
1361;DHT22;674;45.552;-122.600;2024-02-16T00:03:56;4.40;10.60
1361;DHT22;674;45.552;-122.600;2024-02-16T00:06:25;4.40;17.00
1361;DHT22;674;45.552;-122.600;2024-02-16T00:08:53;4.10;17.90
1361;DHT22;674;45.552;-122.600;2024-02-16T00:11:22;4.10;20.20
1361;DHT22;674;45.552;-122.600;2024-02-16T00:13:51;4.10;33.30
1361;DHT22;674;45.552;-122.600;2024-02-16T00:16:20;4.20;60.30
1361;DHT22;674;45.552;-122.600;2024-02-16T00:18:49;4.10;70.50
1361;DHT22;674;45.552;-122.600;2024-02-16T00:21:18;4.10;69.70
1361;DHT22;674;45.552;-122.600;2024-02-16T00:23:46;4.20;73.10
1361;DHT22;674;45.552;-122.600;2024-02-16T00:26:15;4.10;82.50
1361;DHT22;674;45.552;-122.600;2024-02-16T00:28:44;3.80;82.80
1361;DHT22;674;45.552;-122.600;2024-02-16T00:31:12;3.80;86.30
1361;DHT22;674;45.552;-122.600;2024-02-16T00:33:41;3.80;88.40
1361;DHT22;674;45.552;-122.600;2024-02-16T00:36:10;3.90;93.50
1361;DHT22;674;45.552;-122.600;2024-02-16T00:38:38;3.80;97.50
1361;DHT22;674;45.552;-122.600;2024-02-16T00:41:07;3.70;98.70
1361;DHT22;674;45.552;-122.600;2024-02-16T00:43:35;3.80;98.10
1361;DHT22;674;45.552;-122.600;2024-02-16T00:46:04;3.80;99.90
1361;DHT22;674;45.552;-122.600;2024-02-16T00:48:32;4.00;99.90
1361;DHT22;674;45.552;-122.600;2024-02-16T00:51:01;3.90;99.90
1361;DHT22;674;45.552;-122.600;2024-02-16T00:53:30;3.80;98.70
1361;DHT22;674;45.552;-122.600;2024-02-16T00:55:59;4.00;99.90
1361;DHT22;674;45.552;-122.600;2024-02-16T00:58:28;3.70;99.90
1361;DHT22;674;45.552;-122.600;2024-02-16T01:00:56;3.80;99.90
1361;DHT22;674;45.552;-122.600;2024-02-16T01:03:25;3.80;99.90
1361;DHT22;674;45.552;-122.600;2024-02-16T01:05:54;4.00;99.90
1361;DHT22;674;45.552;-122.600;2024-02-16T01:08:22;4.00;99.90
1361;DHT22;674;45.552;-122.600;2024-02-16T01:10:51;3.80;99.90
1361;DHT22;674;45.552;-122.600;2024-02-16T01:13:20;3.70;99.90
1361;DHT22;674;45.552;-122.600;2024-02-16T01:15:48;3.40;99.90
1361;DHT22;674;45.552;-122.600;2024-02-16T01:18:17;3.70;99.90
1361;DHT22;674;45.552;-122.600;2024-02-16T01:20:46;3.80;99.90
1361;DHT22;674;45.552;-122.600;2024-02-16T01:23:14;3.50;99.90
1361;DHT22;674;45.552;-122.600;2024-02-16T01:25:43;3.80;99.90
1361;DHT22;674;45.552;-122.600;2024-02-16T01:28:12;3.80;99.90
1361;DHT22;674;45.552;-122.600;2024-02-16T01:30:41;4.00;99.90
1361;DHT22;674;45.552;-122.600;2024-02-16T01:33:09;3.90;99.90
1361;DHT22;674;45.552;-122.600;2024-02-16T01:35:39;3.70;99.90
1361;DHT22;674;45.552;-122.600;2024-02-16T01:38:07;3.50;99.90
1361;DHT22;674;45.552;-122.600;2024-02-16T01:40:36;3.80;99.90
1361;DHT22;674;45.552;-122.600;2024-02-16T01:43:05;3.40;99.90
1361;DHT22;674;45.552;-122.600;2024-02-16T01:45:33;3.50;99.90
1361;DHT22;674;45.552;-122.600;2024-02-16T01:48:02;3.60;99.90
1361;DHT22;674;45.552;-122.600;2024-02-16T01:50:31;3.70;99.90
1361;DHT22;674;45.552;-122.600;2024-02-16T01:53:04;3.60;99.90
1361;DHT22;674;45.552;-122.600;2024-02-16T01:55:35;3.50;99.90
1361;DHT22;674;45.552;-122.600;2024-02-16T01:58:04;3.50;99.90
1361;DHT22;674;45.552;-122.600;2024-02-16T02:00:33;3.60;99.90
1361;DHT22;674;45.552;-122.600;2024-02-16T02:03:03;3.60;99.90
1361;DHT22;674;45.552;-122.600;2024-02-16T02:05:32;3.60;99.90
1361;DHT22;674;45.552;-122.600;2024-02-16T02:08:09;3.50;99.90
1361;DHT22;674;45.552;-122.600;2024-02-16T02:10:38;3.60;99.90
1361;DHT22;674;45.552;-122.600;2024-02-16T02:13:07;3.60;99.90
1361;DHT22;674;45.552;-122.600;2024-02-16T02:15:36;3.70;99.90
1361;DHT22;674;45.552;-122.600;2024-02-16T02:18:05;3.50;98.80
1361;DHT22;674;45.552;-122.600;2024-02-16T02:20:34;3.50;97.40
1361;DHT22;674;45.552;-122.600;2024-02-16T02:23:03;3.40;94.80
1361;DHT22;674;45.552;-122.600;2024-02-16T02:25:32;3.60;93.30
1361;DHT22;674;45.552;-122.600;2024-02-16T02:28:00;3.80;92.30
1361;DHT22;674;45.552;-122.600;2024-02-16T02:30:31;3.50;92.40
1361;DHT22;674;45.552;-122.600;2024-02-16T02:33:00;3.50;89.80
1361;DHT22;674;45.552;-122.600;2024-02-16T02:35:28;3.50;87.10
1361;DHT22;674;45.552;-122.600;2024-02-16T02:37:57;3.60;77.20
1361;DHT22;674;45.552;-122.600;2024-02-16T02:40:26;3.70;79.00
1361;DHT22;674;45.552;-122.600;2024-02-16T02:42:55;3.80;74.20
1361;DHT22;674;45.552;-122.600;2024-02-16T02:45:23;3.90;72.80
1361;DHT22;674;45.552;-122.600;2024-02-16T02:47:52;3.70;74.50
1361;DHT22;674;45.552;-122.600;2024-02-16T02:50:21;3.80;64.80
1361;DHT22;674;45.552;-122.600;2024-02-16T02:52:50;3.80;68.60
1361;DHT22;674;45.552;-122.600;2024-02-16T02:55:18;3.80;69.00
1361;DHT22;674;45.552;-122.600;2024-02-16T02:57:47;3.70;68.40
1361;DHT22;674;45.552;-122.600;2024-02-16T03:00:16;3.80;61.90
1361;DHT22;674;45.552;-122.600;2024-02-16T03:02:45;3.80;64.00
1361;DHT22;674;45.552;-122.600;2024-02-16T03:05:14;3.80;61.90
1361;DHT22;674;45.552;-122.600;2024-02-16T03:07:43;3.80;53.40
1361;DHT22;674;45.552;-122.600;2024-02-16T03:10:11;3.80;41.00
1361;DHT22;674;45.552;-122.600;2024-02-16T03:12:42;3.80;48.50
1361;DHT22;674;45.552;-122.600;2024-02-16T03:15:10;3.80;49.80
1361;DHT22;674;45.552;-122.600;2024-02-16T03:17:39;3.90;49.30
1361;DHT22;674;45.552;-122.600;2024-02-16T03:20:08;3.80;45.40
1361;DHT22;674;45.552;-122.600;2024-02-16T03:22:37;3.80;54.30
1361;DHT22;674;45.552;-122.600;2024-02-16T03:25:05;3.80;52.80
1361;DHT22;674;45.552;-122.600;2024-02-16T03:27:34;3.80;52.30
1361;DHT22;674;45.552;-122.600;2024-02-16T03:30:03;3.60;55.20
1361;DHT22;674;45.552;-122.600;2024-02-16T03:32:32;3.80;50.00
1361;DHT22;674;45.552;-122.600;2024-02-16T03:35:01;3.80;48.70
1361;DHT22;674;45.552;-122.600;2024-02-16T03:37:30;3.80;41.00
1361;DHT22;674;45.552;-122.600;2024-02-16T03:39:59;4.00;31.90
1361;DHT22;674;45.552;-122.600;2024-02-16T03:42:27;3.80;41.70
1361;DHT22;674;45.552;-122.600;2024-02-16T03:44:56;3.80;46.50
1361;DHT22;674;45.552;-122.600;2024-02-16T03:47:25;3.80;49.70
1361;DHT22;674;45.552;-122.600;2024-02-16T03:49:54;3.80;40.50
1361;DHT22;674;45.552;-122.600;2024-02-16T03:52:23;3.80;43.00
1361;DHT22;674;45.552;-122.600;2024-02-16T03:54:51;3.80;42.00
1361;DHT22;674;45.552;-122.600;2024-02-16T03:57:20;3.90;37.60
1361;DHT22;674;45.552;-122.600;2024-02-16T03:59:48;3.80;36.60
1361;DHT22;674;45.552;-122.600;2024-02-16T04:02:17;3.90;41.60
1361;DHT22;674;45.552;-122.600;2024-02-16T04:04:46;3.80;42.90
1361;DHT22;674;45.552;-122.600;2024-02-16T04:07:15;3.70;36.00
1361;DHT22;674;45.552;-122.600;2024-02-16T04:09:44;3.70;31.20
1361;DHT22;674;45.552;-122.600;2024-02-16T04:12:13;3.70;35.40
1361;DHT22;674;45.552;-122.600;2024-02-16T04:14:41;3.60;32.80
1361;DHT22;674;45.552;-122.600;2024-02-16T04:17:11;3.80;38.50
1361;DHT22;674;45.552;-122.600;2024-02-16T04:19:40;3.70;35.50
1361;DHT22;674;45.552;-122.600;2024-02-16T04:22:08;3.80;28.50
1361;DHT22;674;45.552;-122.600;2024-02-16T04:24:37;3.80;31.10
1361;DHT22;674;45.552;-122.600;2024-02-16T04:27:06;3.90;30.60
1361;DHT22;674;45.552;-122.600;2024-02-16T04:29:35;3.80;23.40
1361;DHT22;674;45.552;-122.600;2024-02-16T04:32:04;3.80;24.90
1361;DHT22;674;45.552;-122.600;2024-02-16T04:34:33;3.80;22.30
1361;DHT22;674;45.552;-122.600;2024-02-16T04:37:02;3.80;14.90
1361;DHT22;674;45.552;-122.600;2024-02-16T04:39:30;3.80;23.50
1361;DHT22;674;45.552;-122.600;2024-02-16T04:41:59;3.80;23.00
1361;DHT22;674;45.552;-122.600;2024-02-16T04:44:28;3.80;25.70
1361;DHT22;674;45.552;-122.600;2024-02-16T04:46:57;3.70;20.40
1361;DHT22;674;45.552;-122.600;2024-02-16T04:49:25;3.60;22.90
1361;DHT22;674;45.552;-122.600;2024-02-16T04:51:55;3.90;29.30
1361;DHT22;674;45.552;-122.600;2024-02-16T04:54:24;4.00;28.70
1361;DHT22;674;45.552;-122.600;2024-02-16T04:56:53;3.80;26.00
1361;DHT22;674;45.552;-122.600;2024-02-16T04:59:21;3.80;22.40
1361;DHT22;674;45.552;-122.600;2024-02-16T05:01:50;3.80;22.40
1361;DHT22;674;45.552;-122.600;2024-02-16T05:04:18;3.80;21.00
1361;DHT22;674;45.552;-122.600;2024-02-16T05:06:47;3.80;19.60
1361;DHT22;674;45.552;-122.600;2024-02-16T05:09:16;3.90;19.60
1361;DHT22;674;45.552;-122.600;2024-02-16T05:11:45;3.90;24.70
1361;DHT22;674;45.552;-122.600;2024-02-16T05:14:14;3.80;20.30
1361;DHT22;674;45.552;-122.600;2024-02-16T05:16:44;3.80;16.10
1361;DHT22;674;45.552;-122.600;2024-02-16T05:19:13;3.70;16.30
1361;DHT22;674;45.552;-122.600;2024-02-16T05:21:42;3.80;17.10
1361;DHT22;674;45.552;-122.600;2024-02-16T05:24:10;3.80;9.80
1361;DHT22;674;45.552;-122.600;2024-02-16T05:26:39;3.80;8.20
1361;DHT22;674;45.552;-122.600;2024-02-16T05:29:08;3.80;15.40
1361;DHT22;674;45.552;-122.600;2024-02-16T05:31:36;3.80;16.00
1361;DHT22;674;45.552;-122.600;2024-02-16T05:34:05;3.70;7.10
1361;DHT22;674;45.552;-122.600;2024-02-16T05:36:34;3.80;9.10
1361;DHT22;674;45.552;-122.600;2024-02-16T05:39:04;3.80;2.80
1361;DHT22;674;45.552;-122.600;2024-02-16T05:41:55;3.80;3.00
1361;DHT22;674;45.552;-122.600;2024-02-16T05:44:24;3.90;4.80
1361;DHT22;674;45.552;-122.600;2024-02-16T05:46:53;3.80;1.00
1361;DHT22;674;45.552;-122.600;2024-02-16T05:49:21;3.90;1.00
1361;DHT22;674;45.552;-122.600;2024-02-16T05:51:51;3.80;1.00
1361;DHT22;674;45.552;-122.600;2024-02-16T05:54:38;3.80;3.10
1361;DHT22;674;45.552;-122.600;2024-02-16T05:57:07;3.70;4.90
1361;DHT22;674;45.552;-122.600;2024-02-16T05:59:37;3.80;9.80
1361;DHT22;674;45.552;-122.600;2024-02-16T06:02:06;3.80;13.00
1361;DHT22;674;45.552;-122.600;2024-02-16T06:04:35;3.90;10.80
1361;DHT22;674;45.552;-122.600;2024-02-16T06:07:04;3.90;11.00
1361;DHT22;674;45.552;-122.600;2024-02-16T06:09:33;3.80;6.60
1361;DHT22;674;45.552;-122.600;2024-02-16T06:12:04;3.90;2.50
1361;DHT22;674;45.552;-122.600;2024-02-16T06:14:33;3.80;2.30
1361;DHT22;674;45.552;-122.600;2024-02-16T06:17:02;3.70;1.00
1361;DHT22;674;45.552;-122.600;2024-02-16T06:19:31;3.80;1.00
1361;DHT22;674;45.552;-122.600;2024-02-16T06:21:59;3.70;1.00
1361;DHT22;674;45.552;-122.600;2024-02-16T06:24:28;3.70;1.00
1361;DHT22;674;45.552;-122.600;2024-02-16T06:26:57;3.80;1.00
1361;DHT22;674;45.552;-122.600;2024-02-16T06:29:25;3.90;1.00
1361;DHT22;674;45.552;-122.600;2024-02-16T06:31:54;3.70;1.00
1361;DHT22;674;45.552;-122.600;2024-02-16T06:34:23;3.70;1.00
1361;DHT22;674;45.552;-122.600;2024-02-16T06:36:52;3.80;1.00
1361;DHT22;674;45.552;-122.600;2024-02-16T06:39:20;4.00;1.00
1361;DHT22;674;45.552;-122.600;2024-02-16T06:41:49;3.80;1.00
1361;DHT22;674;45.552;-122.600;2024-02-16T06:44:18;3.80;1.00
1361;DHT22;674;45.552;-122.600;2024-02-16T06:46:50;3.80;1.00
1361;DHT22;674;45.552;-122.600;2024-02-16T06:49:19;3.70;1.00
1361;DHT22;674;45.552;-122.600;2024-02-16T06:51:48;3.80;1.00
1361;DHT22;674;45.552;-122.600;2024-02-16T06:54:16;3.80;1.00
1361;DHT22;674;45.552;-122.600;2024-02-16T06:56:45;4.00;1.00
1361;DHT22;674;45.552;-122.600;2024-02-16T06:59:14;3.80;1.00
1361;DHT22;674;45.552;-122.600;2024-02-16T07:01:42;3.70;1.00
1361;DHT22;674;45.552;-122.600;2024-02-16T07:04:11;3.80;1.00
1361;DHT22;674;45.552;-122.600;2024-02-16T07:06:40;3.80;1.00
1361;DHT22;674;45.552;-122.600;2024-02-16T07:09:09;3.70;1.00
1361;DHT22;674;45.552;-122.600;2024-02-16T07:11:38;3.80;1.00
1361;DHT22;674;45.552;-122.600;2024-02-16T07:14:06;3.80;1.00
1361;DHT22;674;45.552;-122.600;2024-02-16T07:16:36;3.70;1.00
1361;DHT22;674;45.552;-122.600;2024-02-16T07:19:04;3.80;1.00
1361;DHT22;674;45.552;-122.600;2024-02-16T07:21:33;3.70;1.00
1361;DHT22;674;45.552;-122.600;2024-02-16T07:24:02;3.80;1.00
1361;DHT22;674;45.552;-122.600;2024-02-16T07:26:31;3.70;1.00
1361;DHT22;674;45.552;-122.600;2024-02-16T07:29:01;3.70;1.00
1361;DHT22;674;45.552;-122.600;2024-02-16T07:31:33;3.70;1.00
1361;DHT22;674;45.552;-122.600;2024-02-16T07:34:02;3.80;1.00
1361;DHT22;674;45.552;-122.600;2024-02-16T07:36:31;3.70;1.00
1361;DHT22;674;45.552;-122.600;2024-02-16T07:39:03;3.80;1.00
1361;DHT22;674;45.552;-122.600;2024-02-16T07:41:33;3.80;1.00
1361;DHT22;674;45.552;-122.600;2024-02-16T07:44:01;3.80;1.00
1361;DHT22;674;45.552;-122.600;2024-02-16T07:46:30;3.70;1.00
1361;DHT22;674;45.552;-122.600;2024-02-16T07:49:02;3.80;1.00
1361;DHT22;674;45.552;-122.600;2024-02-16T07:51:33;3.70;1.00
1361;DHT22;674;45.552;-122.600;2024-02-16T07:54:01;3.90;1.00
1361;DHT22;674;45.552;-122.600;2024-02-16T07:56:31;3.80;1.00
1361;DHT22;674;45.552;-122.600;2024-02-16T07:59:00;3.70;1.00
1361;DHT22;674;45.552;-122.600;2024-02-16T08:01:29;3.80;1.00
1361;DHT22;674;45.552;-122.600;2024-02-16T08:03:57;3.60;1.00
1361;DHT22;674;45.552;-122.600;2024-02-16T08:06:30;3.90;1.00
1361;DHT22;674;45.552;-122.600;2024-02-16T08:09:00;3.80;1.00
1361;DHT22;674;45.552;-122.600;2024-02-16T08:11:28;3.70;1.00
1361;DHT22;674;45.552;-122.600;2024-02-16T08:13:57;3.90;1.00
1361;DHT22;674;45.552;-122.600;2024-02-16T08:16:28;3.60;1.00
1361;DHT22;674;45.552;-122.600;2024-02-16T08:18:57;3.90;1.00
1361;DHT22;674;45.552;-122.600;2024-02-16T08:21:26;3.90;1.00
1361;DHT22;674;45.552;-122.600;2024-02-16T08:23:54;3.80;1.00
1361;DHT22;674;45.552;-122.600;2024-02-16T08:26:23;3.70;1.00
1361;DHT22;674;45.552;-122.600;2024-02-16T08:28:51;3.70;1.00
1361;DHT22;674;45.552;-122.600;2024-02-16T08:31:20;3.70;1.00
1361;DHT22;674;45.552;-122.600;2024-02-16T08:33:49;3.60;1.00
1361;DHT22;674;45.552;-122.600;2024-02-16T08:36:17;3.60;1.00
1361;DHT22;674;45.552;-122.600;2024-02-16T08:38:47;3.70;1.00
1361;DHT22;674;45.552;-122.600;2024-02-16T08:41:15;3.80;1.00
1361;DHT22;674;45.552;-122.600;2024-02-16T08:43:44;3.80;1.00
1361;DHT22;674;45.552;-122.600;2024-02-16T08:46:12;3.60;1.00
1361;DHT22;674;45.552;-122.600;2024-02-16T08:48:41;3.80;1.00
1361;DHT22;674;45.552;-122.600;2024-02-16T08:51:10;3.40;1.00
1361;DHT22;674;45.552;-122.600;2024-02-16T08:53:38;3.40;1.00
1361;DHT22;674;45.552;-122.600;2024-02-16T08:56:10;3.50;1.00
1361;DHT22;674;45.552;-122.600;2024-02-16T08:58:41;3.60;1.00
1361;DHT22;674;45.552;-122.600;2024-02-16T09:01:10;3.70;1.00
1361;DHT22;674;45.552;-122.600;2024-02-16T09:03:38;3.60;1.00
1361;DHT22;674;45.552;-122.600;2024-02-16T09:06:08;3.70;1.00
1361;DHT22;674;45.552;-122.600;2024-02-16T09:08:37;3.50;1.00
1361;DHT22;674;45.552;-122.600;2024-02-16T09:11:06;3.40;1.00
1361;DHT22;674;45.552;-122.600;2024-02-16T09:13:35;3.60;1.00
1361;DHT22;674;45.552;-122.600;2024-02-16T09:16:07;3.40;1.00
1361;DHT22;674;45.552;-122.600;2024-02-16T09:18:36;3.40;1.00
1361;DHT22;674;45.552;-122.600;2024-02-16T09:21:08;3.40;1.00
1361;DHT22;674;45.552;-122.600;2024-02-16T09:23:36;3.50;1.00
1361;DHT22;674;45.552;-122.600;2024-02-16T09:26:05;3.50;1.00
1361;DHT22;674;45.552;-122.600;2024-02-16T09:28:33;3.40;1.00
1361;DHT22;674;45.552;-122.600;2024-02-16T09:31:02;3.20;1.00
1361;DHT22;674;45.552;-122.600;2024-02-16T09:33:31;3.30;1.00
1361;DHT22;674;45.552;-122.600;2024-02-16T09:36:00;3.30;1.00
1361;DHT22;674;45.552;-122.600;2024-02-16T09:38:28;3.50;1.00
1361;DHT22;674;45.552;-122.600;2024-02-16T09:40:57;3.30;1.00
1361;DHT22;674;45.552;-122.600;2024-02-16T09:43:27;3.50;1.00
1361;DHT22;674;45.552;-122.600;2024-02-16T09:45:57;3.20;1.00
1361;DHT22;674;45.552;-122.600;2024-02-16T09:48:29;3.50;1.00
1361;DHT22;674;45.552;-122.600;2024-02-16T09:50:58;3.30;1.00
1361;DHT22;674;45.552;-122.600;2024-02-16T09:53:29;3.20;1.00
1361;DHT22;674;45.552;-122.600;2024-02-16T09:55:58;3.30;1.00
1361;DHT22;674;45.552;-122.600;2024-02-16T09:58:26;3.40;1.00
1361;DHT22;674;45.552;-122.600;2024-02-16T10:00:55;3.20;1.00
1361;DHT22;674;45.552;-122.600;2024-02-16T10:03:31;3.30;1.00
1361;DHT22;674;45.552;-122.600;2024-02-16T10:06:13;3.40;1.00
1361;DHT22;674;45.552;-122.600;2024-02-16T10:08:51;3.30;1.00
1361;DHT22;674;45.552;-122.600;2024-02-16T10:11:22;3.30;1.00
1361;DHT22;674;45.552;-122.600;2024-02-16T10:16:25;3.30;1.00
1361;DHT22;674;45.552;-122.600;2024-02-16T10:18:56;3.10;1.00
1361;DHT22;674;45.552;-122.600;2024-02-16T10:21:29;3.40;1.00
1361;DHT22;674;45.552;-122.600;2024-02-16T10:24:04;3.10;1.00
1361;DHT22;674;45.552;-122.600;2024-02-16T10:26:37;2.80;2.00
1361;DHT22;674;45.552;-122.600;2024-02-16T10:29:09;3.00;4.30
1361;DHT22;674;45.552;-122.600;2024-02-16T10:31:38;3.00;15.20
1361;DHT22;674;45.552;-122.600;2024-02-16T10:34:06;3.00;22.40
1361;DHT22;674;45.552;-122.600;2024-02-16T10:36:38;3.10;22.40
1361;DHT22;674;45.552;-122.600;2024-02-16T10:39:07;3.00;24.50
1361;DHT22;674;45.552;-122.600;2024-02-16T10:41:40;3.00;24.90
1361;DHT22;674;45.552;-122.600;2024-02-16T10:44:09;3.00;28.50
1361;DHT22;674;45.552;-122.600;2024-02-16T10:46:38;3.10;25.70
1361;DHT22;674;45.552;-122.600;2024-02-16T10:49:08;3.00;31.50
1361;DHT22;674;45.552;-122.600;2024-02-16T10:51:46;3.00;28.80
1361;DHT22;674;45.552;-122.600;2024-02-16T10:54:18;3.00;30.00
1361;DHT22;674;45.552;-122.600;2024-02-16T10:56:48;2.80;32.80
1361;DHT22;674;45.552;-122.600;2024-02-16T10:59:17;2.70;36.10
1361;DHT22;674;45.552;-122.600;2024-02-16T11:01:45;2.90;38.30
1361;DHT22;674;45.552;-122.600;2024-02-16T11:04:17;2.80;47.20
1361;DHT22;674;45.552;-122.600;2024-02-16T11:06:51;2.80;60.60
1361;DHT22;674;45.552;-122.600;2024-02-16T11:09:29;2.50;70.80
1361;DHT22;674;45.552;-122.600;2024-02-16T11:12:02;2.70;69.30
1361;DHT22;674;45.552;-122.600;2024-02-16T11:14:39;2.60;80.10
1361;DHT22;674;45.552;-122.600;2024-02-16T11:17:12;2.50;81.10
1361;DHT22;674;45.552;-122.600;2024-02-16T11:19:45;2.50;82.60
1361;DHT22;674;45.552;-122.600;2024-02-16T11:22:18;2.40;77.20
1361;DHT22;674;45.552;-122.600;2024-02-16T11:24:53;2.40;81.10
1361;DHT22;674;45.552;-122.600;2024-02-16T11:27:31;2.60;81.60
1361;DHT22;674;45.552;-122.600;2024-02-16T11:30:02;2.50;82.80
1361;DHT22;674;45.552;-122.600;2024-02-16T11:32:33;2.50;81.40
1361;DHT22;674;45.552;-122.600;2024-02-16T11:35:09;2.60;81.00
1361;DHT22;674;45.552;-122.600;2024-02-16T11:37:39;2.80;83.50
1361;DHT22;674;45.552;-122.600;2024-02-16T11:40:11;2.60;78.00
1361;DHT22;674;45.552;-122.600;2024-02-16T11:42:40;2.80;76.20
1361;DHT22;674;45.552;-122.600;2024-02-16T11:45:11;2.80;76.70
1361;DHT22;674;45.552;-122.600;2024-02-16T11:47:40;2.50;65.20
1361;DHT22;674;45.552;-122.600;2024-02-16T11:50:10;2.70;65.90
1361;DHT22;674;45.552;-122.600;2024-02-16T11:52:43;2.80;63.80
1361;DHT22;674;45.552;-122.600;2024-02-16T11:55:11;2.70;45.90
1361;DHT22;674;45.552;-122.600;2024-02-16T11:57:40;2.60;49.80
1361;DHT22;674;45.552;-122.600;2024-02-16T12:00:10;2.80;49.50
1361;DHT22;674;45.552;-122.600;2024-02-16T12:02:43;2.70;48.10
1361;DHT22;674;45.552;-122.600;2024-02-16T12:05:14;2.70;42.30
1361;DHT22;674;45.552;-122.600;2024-02-16T12:07:43;2.70;44.10
1361;DHT22;674;45.552;-122.600;2024-02-16T12:10:15;2.70;35.20
1361;DHT22;674;45.552;-122.600;2024-02-16T12:12:43;2.80;28.00
1361;DHT22;674;45.552;-122.600;2024-02-16T12:15:12;2.90;23.60
1361;DHT22;674;45.552;-122.600;2024-02-16T12:17:41;3.00;21.50
1361;DHT22;674;45.552;-122.600;2024-02-16T12:20:13;3.20;20.40
1361;DHT22;674;45.552;-122.600;2024-02-16T12:22:42;2.80;17.70
1361;DHT22;674;45.552;-122.600;2024-02-16T12:25:11;3.00;16.80
1361;DHT22;674;45.552;-122.600;2024-02-16T12:27:40;3.00;11.10
1361;DHT22;674;45.552;-122.600;2024-02-16T12:30:09;2.90;7.50
1361;DHT22;674;45.552;-122.600;2024-02-16T12:32:38;2.90;5.10
1361;DHT22;674;45.552;-122.600;2024-02-16T12:35:07;2.50;1.00
1361;DHT22;674;45.552;-122.600;2024-02-16T12:37:36;3.00;1.00
1361;DHT22;674;45.552;-122.600;2024-02-16T12:40:06;2.80;1.00
1361;DHT22;674;45.552;-122.600;2024-02-16T12:42:35;3.00;1.00
1361;DHT22;674;45.552;-122.600;2024-02-16T12:45:04;2.80;1.00
1361;DHT22;674;45.552;-122.600;2024-02-16T12:47:33;3.00;1.00
1361;DHT22;674;45.552;-122.600;2024-02-16T12:50:01;2.80;1.00
1361;DHT22;674;45.552;-122.600;2024-02-16T12:52:30;3.10;1.00
1361;DHT22;674;45.552;-122.600;2024-02-16T12:55:12;3.10;1.00
1361;DHT22;674;45.552;-122.600;2024-02-16T12:57:42;3.00;1.00
1361;DHT22;674;45.552;-122.600;2024-02-16T13:00:11;2.90;1.00
1361;DHT22;674;45.552;-122.600;2024-02-16T13:02:41;2.90;1.00
1361;DHT22;674;45.552;-122.600;2024-02-16T13:05:09;2.80;1.00
1361;DHT22;674;45.552;-122.600;2024-02-16T13:07:39;3.00;1.00
1361;DHT22;674;45.552;-122.600;2024-02-16T13:10:09;2.80;1.00
1361;DHT22;674;45.552;-122.600;2024-02-16T13:12:38;3.00;1.00
1361;DHT22;674;45.552;-122.600;2024-02-16T13:15:07;2.80;1.00
1361;DHT22;674;45.552;-122.600;2024-02-16T13:17:53;2.90;1.00
1361;DHT22;674;45.552;-122.600;2024-02-16T13:20:23;3.10;1.00
1361;DHT22;674;45.552;-122.600;2024-02-16T13:22:51;3.40;1.00
1361;DHT22;674;45.552;-122.600;2024-02-16T13:25:20;3.00;1.00
1361;DHT22;674;45.552;-122.600;2024-02-16T13:27:49;3.40;1.00
1361;DHT22;674;45.552;-122.600;2024-02-16T13:30:18;3.30;1.00
1361;DHT22;674;45.552;-122.600;2024-02-16T13:32:46;3.20;1.00
1361;DHT22;674;45.552;-122.600;2024-02-16T13:35:15;3.10;1.00
1361;DHT22;674;45.552;-122.600;2024-02-16T13:37:48;3.30;1.00
1361;DHT22;674;45.552;-122.600;2024-02-16T13:40:16;3.30;1.00
1361;DHT22;674;45.552;-122.600;2024-02-16T13:42:46;3.10;1.00
1361;DHT22;674;45.552;-122.600;2024-02-16T13:45:16;3.40;1.00
1361;DHT22;674;45.552;-122.600;2024-02-16T13:47:45;3.20;1.00
1361;DHT22;674;45.552;-122.600;2024-02-16T13:50:13;3.10;1.00
1361;DHT22;674;45.552;-122.600;2024-02-16T13:52:42;3.30;1.00
1361;DHT22;674;45.552;-122.600;2024-02-16T13:55:12;3.10;1.00
1361;DHT22;674;45.552;-122.600;2024-02-16T13:57:41;3.20;1.00
1361;DHT22;674;45.552;-122.600;2024-02-16T14:00:09;3.30;1.00
1361;DHT22;674;45.552;-122.600;2024-02-16T14:02:38;3.30;1.00
1361;DHT22;674;45.552;-122.600;2024-02-16T14:05:07;3.30;1.00
1361;DHT22;674;45.552;-122.600;2024-02-16T14:07:35;3.40;1.00
1361;DHT22;674;45.552;-122.600;2024-02-16T14:10:17;3.30;1.00
1361;DHT22;674;45.552;-122.600;2024-02-16T14:12:46;3.20;1.00
1361;DHT22;674;45.552;-122.600;2024-02-16T14:15:15;3.10;1.00
1361;DHT22;674;45.552;-122.600;2024-02-16T14:17:44;3.40;1.00
1361;DHT22;674;45.552;-122.600;2024-02-16T14:20:12;3.40;1.00
1361;DHT22;674;45.552;-122.600;2024-02-16T14:22:42;3.30;1.00
1361;DHT22;674;45.552;-122.600;2024-02-16T14:25:11;3.50;1.00
1361;DHT22;674;45.552;-122.600;2024-02-16T14:27:41;3.30;1.00
1361;DHT22;674;45.552;-122.600;2024-02-16T14:30:13;3.30;1.00
1361;DHT22;674;45.552;-122.600;2024-02-16T14:32:42;3.70;1.00
1361;DHT22;674;45.552;-122.600;2024-02-16T14:35:11;3.30;1.00
1361;DHT22;674;45.552;-122.600;2024-02-16T14:37:39;3.40;1.00
1361;DHT22;674;45.552;-122.600;2024-02-16T14:40:08;3.30;1.00
1361;DHT22;674;45.552;-122.600;2024-02-16T14:42:38;3.30;1.00
1361;DHT22;674;45.552;-122.600;2024-02-16T14:45:08;3.30;1.00
1361;DHT22;674;45.552;-122.600;2024-02-16T14:47:37;3.30;1.00
1361;DHT22;674;45.552;-122.600;2024-02-16T14:50:06;3.30;1.00
1361;DHT22;674;45.552;-122.600;2024-02-16T14:52:35;3.30;1.00
1361;DHT22;674;45.552;-122.600;2024-02-16T14:55:05;3.30;1.00
1361;DHT22;674;45.552;-122.600;2024-02-16T14:57:38;3.30;1.00
1361;DHT22;674;45.552;-122.600;2024-02-16T15:00:09;3.30;1.00
1361;DHT22;674;45.552;-122.600;2024-02-16T15:02:39;3.30;1.00
1361;DHT22;674;45.552;-122.600;2024-02-16T15:05:10;3.00;1.00
1361;DHT22;674;45.552;-122.600;2024-02-16T15:07:40;3.30;1.00
1361;DHT22;674;45.552;-122.600;2024-02-16T15:10:09;3.30;1.00
1361;DHT22;674;45.552;-122.600;2024-02-16T15:12:38;3.20;1.00
1361;DHT22;674;45.552;-122.600;2024-02-16T15:15:08;3.30;1.00
1361;DHT22;674;45.552;-122.600;2024-02-16T15:17:37;3.20;1.00
1361;DHT22;674;45.552;-122.600;2024-02-16T15:20:07;3.20;1.00
1361;DHT22;674;45.552;-122.600;2024-02-16T15:22:36;3.30;1.00
1361;DHT22;674;45.552;-122.600;2024-02-16T15:25:21;3.30;1.00
1361;DHT22;674;45.552;-122.600;2024-02-16T15:27:50;3.30;1.00
1361;DHT22;674;45.552;-122.600;2024-02-16T15:30:22;3.30;1.00
1361;DHT22;674;45.552;-122.600;2024-02-16T15:32:51;3.30;1.00
1361;DHT22;674;45.552;-122.600;2024-02-16T15:35:22;3.30;1.00
1361;DHT22;674;45.552;-122.600;2024-02-16T15:37:51;3.50;1.00
1361;DHT22;674;45.552;-122.600;2024-02-16T15:40:20;3.50;1.00
1361;DHT22;674;45.552;-122.600;2024-02-16T15:43:02;3.50;1.00
1361;DHT22;674;45.552;-122.600;2024-02-16T15:45:31;3.40;1.00
1361;DHT22;674;45.552;-122.600;2024-02-16T15:48:02;3.20;1.00
1361;DHT22;674;45.552;-122.600;2024-02-16T15:50:31;3.60;1.00
1361;DHT22;674;45.552;-122.600;2024-02-16T15:53:02;3.50;1.00
1361;DHT22;674;45.552;-122.600;2024-02-16T15:55:31;3.50;1.00
1361;DHT22;674;45.552;-122.600;2024-02-16T15:58:00;3.50;1.00
1361;DHT22;674;45.552;-122.600;2024-02-16T16:00:29;3.60;1.00
1361;DHT22;674;45.552;-122.600;2024-02-16T16:02:57;3.30;1.00
1361;DHT22;674;45.552;-122.600;2024-02-16T16:05:28;3.60;1.00
1361;DHT22;674;45.552;-122.600;2024-02-16T16:07:58;3.70;1.00
1361;DHT22;674;45.552;-122.600;2024-02-16T16:10:26;3.60;1.00
1361;DHT22;674;45.552;-122.600;2024-02-16T16:12:55;3.90;1.00